sensor_id;sensor_type;location;lat;lon;timestamp;pressure;altitude;pressure_sealevel;temperature;humidity
13312;BME280;34033;48.672;9.376;2022-11-20T00:00:53;98033.34;;;8.29;81.53
13312;BME280;34033;48.672;9.376;2022-11-20T00:03:19;98039.31;;;8.27;81.19
13312;BME280;34033;48.672;9.376;2022-11-20T00:05:44;98031.72;;;8.21;81.57
13312;BME280;34033;48.672;9.376;2022-11-20T00:08:10;98045.28;;;8.26;81.55
13312;BME280;34033;48.672;9.376;2022-11-20T00:10:37;98036.50;;;8.27;80.56
13312;BME280;34033;48.672;9.376;2022-11-20T00:13:02;98031.03;;;8.31;81.19
13312;BME280;34033;48.672;9.376;2022-11-20T00:15:28;98039.38;;;8.31;80.84
13312;BME280;34033;48.672;9.376;2022-11-20T00:17:53;98034.94;;;8.26;81.17
13312;BME280;34033;48.672;9.376;2022-11-20T00:20:18;98041.25;;;8.23;80.74
13312;BME280;34033;48.672;9.376;2022-11-20T00:22:44;98043.56;;;8.14;80.87
13312;BME280;34033;48.672;9.376;2022-11-20T00:25:09;98045.91;;;8.09;81.62
13312;BME280;34033;48.672;9.376;2022-11-20T00:27:34;98041.94;;;8.10;82.25
13312;BME280;34033;48.672;9.376;2022-11-20T00:30:00;98041.06;;;8.02;81.99
13312;BME280;34033;48.672;9.376;2022-11-20T00:32:25;98039.81;;;7.96;81.61
13312;BME280;34033;48.672;9.376;2022-11-20T00:34:50;98041.00;;;7.95;81.84
13312;BME280;34033;48.672;9.376;2022-11-20T00:37:16;98036.91;;;7.82;81.66
13312;BME280;34033;48.672;9.376;2022-11-20T00:39:41;98045.53;;;7.73;81.88
13312;BME280;34033;48.672;9.376;2022-11-20T00:42:06;98050.31;;;7.73;82.96
13312;BME280;34033;48.672;9.376;2022-11-20T00:44:32;98048.38;;;7.77;82.84
13312;BME280;34033;48.672;9.376;2022-11-20T00:46:57;98050.31;;;7.73;82.52
13312;BME280;34033;48.672;9.376;2022-11-20T00:49:22;98051.06;;;7.66;83.09
13312;BME280;34033;48.672;9.376;2022-11-20T00:51:47;98053.44;;;7.68;83.10
13312;BME280;34033;48.672;9.376;2022-11-20T00:54:13;98055.41;;;7.67;82.97
13312;BME280;34033;48.672;9.376;2022-11-20T00:56:38;98056.66;;;7.70;83.01
13312;BME280;34033;48.672;9.376;2022-11-20T00:59:04;98056.31;;;7.75;83.37
13312;BME280;34033;48.672;9.376;2022-11-20T01:01:29;98057.38;;;7.67;82.63
13312;BME280;34033;48.672;9.376;2022-11-20T01:03:56;98059.44;;;7.73;82.76
13312;BME280;34033;48.672;9.376;2022-11-20T01:06:24;98065.44;;;7.75;82.41
13312;BME280;34033;48.672;9.376;2022-11-20T01:08:52;98059.16;;;7.82;82.42
13312;BME280;34033;48.672;9.376;2022-11-20T01:11:21;98070.28;;;7.82;82.23
13312;BME280;34033;48.672;9.376;2022-11-20T01:13:50;98064.31;;;7.80;81.73
13312;BME280;34033;48.672;9.376;2022-11-20T01:18:51;98063.94;;;7.81;81.21
13312;BME280;34033;48.672;9.376;2022-11-20T01:21:22;98075.53;;;7.87;81.12
13312;BME280;34033;48.672;9.376;2022-11-20T01:23:49;98070.66;;;7.77;80.93
13312;BME280;34033;48.672;9.376;2022-11-20T01:26:22;98071.03;;;7.79;81.22
13312;BME280;34033;48.672;9.376;2022-11-20T01:28:49;98075.81;;;7.78;81.31
13312;BME280;34033;48.672;9.376;2022-11-20T01:31:22;98071.97;;;7.90;81.83
13312;BME280;34033;48.672;9.376;2022-11-20T01:33:50;98079.16;;;7.94;81.57
13312;BME280;34033;48.672;9.376;2022-11-20T01:36:18;98077.59;;;7.97;80.56
13312;BME280;34033;48.672;9.376;2022-11-20T01:38:45;98065.66;;;7.93;80.90
13312;BME280;34033;48.672;9.376;2022-11-20T01:41:12;98070.81;;;7.94;80.27
13312;BME280;34033;48.672;9.376;2022-11-20T01:43:57;98078.31;;;7.90;80.70
13312;BME280;34033;48.672;9.376;2022-11-20T01:46:23;98073.13;;;7.89;80.50
13312;BME280;34033;48.672;9.376;2022-11-20T01:48:50;98068.81;;;7.91;80.10
13312;BME280;34033;48.672;9.376;2022-11-20T01:51:29;98073.56;;;7.91;80.21
13312;BME280;34033;48.672;9.376;2022-11-20T01:53:59;98069.53;;;7.85;80.02
13312;BME280;34033;48.672;9.376;2022-11-20T01:56:26;98069.53;;;7.85;80.64
13312;BME280;34033;48.672;9.376;2022-11-20T01:58:55;98061.53;;;7.83;80.24
13312;BME280;34033;48.672;9.376;2022-11-20T02:01:22;98065.66;;;7.93;79.52
13312;BME280;34033;48.672;9.376;2022-11-20T02:03:48;98063.69;;;7.97;79.22
13312;BME280;34033;48.672;9.376;2022-11-20T02:06:20;98068.38;;;7.89;78.93
13312;BME280;34033;48.672;9.376;2022-11-20T02:08:48;98062.44;;;7.91;78.60
13312;BME280;34033;48.672;9.376;2022-11-20T02:11:13;98066.75;;;7.85;79.01
13312;BME280;34033;48.672;9.376;2022-11-20T02:13:39;98060.34;;;7.81;78.86
13312;BME280;34033;48.672;9.376;2022-11-20T02:18:42;98052.38;;;7.79;79.29
13312;BME280;34033;48.672;9.376;2022-11-20T02:21:58;98067.50;;;7.82;79.47
13312;BME280;34033;48.672;9.376;2022-11-20T02:24:19;98068.59;;;7.74;78.36
13312;BME280;34033;48.672;9.376;2022-11-20T02:29:13;98079.34;;;7.75;78.37
13312;BME280;34033;48.672;9.376;2022-11-20T02:31:42;98071.03;;;7.79;78.98
13312;BME280;34033;48.672;9.376;2022-11-20T02:34:09;98067.06;;;7.76;78.00
13312;BME280;34033;48.672;9.376;2022-11-20T02:36:35;98071.00;;;7.75;78.53
13312;BME280;34033;48.672;9.376;2022-11-20T02:39:02;98063.81;;;7.71;78.85
13312;BME280;34033;48.672;9.376;2022-11-20T02:41:33;98072.91;;;7.68;78.20
13312;BME280;34033;48.672;9.376;2022-11-20T02:43:58;98070.13;;;7.68;78.48
13312;BME280;34033;48.672;9.376;2022-11-20T02:46:23;98066.50;;;7.64;78.69
13312;BME280;34033;48.672;9.376;2022-11-20T02:48:49;98072.44;;;7.62;79.23
13312;BME280;34033;48.672;9.376;2022-11-20T02:51:14;98078.06;;;7.66;79.45
13312;BME280;34033;48.672;9.376;2022-11-20T02:53:40;98075.28;;;7.66;79.39
13312;BME280;34033;48.672;9.376;2022-11-20T02:56:05;98072.91;;;7.68;79.70
13312;BME280;34033;48.672;9.376;2022-11-20T02:58:31;98069.28;;;7.64;79.45
13312;BME280;34033;48.672;9.376;2022-11-20T03:00:56;98062.50;;;7.61;79.21
13312;BME280;34033;48.672;9.376;2022-11-20T03:03:22;98074.06;;;7.67;78.70
13312;BME280;34033;48.672;9.376;2022-11-20T03:05:47;98070.91;;;7.65;78.79
13312;BME280;34033;48.672;9.376;2022-11-20T03:08:12;98068.59;;;7.74;77.67
13312;BME280;34033;48.672;9.376;2022-11-20T03:10:37;98071.81;;;7.76;77.73
13312;BME280;34033;48.672;9.376;2022-11-20T03:13:03;98073.34;;;7.70;77.53
13312;BME280;34033;48.672;9.376;2022-11-20T03:15:28;98068.84;;;7.62;77.73
13312;BME280;34033;48.672;9.376;2022-11-20T03:17:54;98073.63;;;7.61;78.15
13312;BME280;34033;48.672;9.376;2022-11-20T03:20:20;98068.06;;;7.61;78.91
13312;BME280;34033;48.672;9.376;2022-11-20T03:22:46;98060.13;;;7.63;78.68
13312;BME280;34033;48.672;9.376;2022-11-20T03:25:11;98064.16;;;7.66;78.19
13312;BME280;34033;48.672;9.376;2022-11-20T03:27:36;98067.78;;;7.70;77.86
13312;BME280;34033;48.672;9.376;2022-11-20T03:30:02;98077.25;;;7.65;76.79
13312;BME280;34033;48.672;9.376;2022-11-20T03:32:28;98073.97;;;7.56;77.53
13312;BME280;34033;48.672;9.376;2022-11-20T03:34:53;98064.34;;;7.50;78.12
13312;BME280;34033;48.672;9.376;2022-11-20T03:37:18;98071.84;;;7.46;78.37
13312;BME280;34033;48.672;9.376;2022-11-20T03:39:44;98075.44;;;7.46;78.39
13312;BME280;34033;48.672;9.376;2022-11-20T03:42:09;98075.16;;;7.55;78.58
13312;BME280;34033;48.672;9.376;2022-11-20T03:44:53;98069.91;;;7.50;77.92
13312;BME280;34033;48.672;9.376;2022-11-20T03:47:18;98066.38;;;7.53;78.20
13312;BME280;34033;48.672;9.376;2022-11-20T03:49:44;98074.28;;;7.51;77.64
13312;BME280;34033;48.672;9.376;2022-11-20T03:52:09;98073.50;;;7.50;77.86
13312;BME280;34033;48.672;9.376;2022-11-20T03:54:34;98068.41;;;7.56;78.38
13312;BME280;34033;48.672;9.376;2022-11-20T03:57:00;98066.84;;;7.59;77.97
13312;BME280;34033;48.672;9.376;2022-11-20T03:59:25;98073.25;;;7.63;78.18
13312;BME280;34033;48.672;9.376;2022-11-20T04:01:50;98066.06;;;7.62;78.25
13312;BME280;34033;48.672;9.376;2022-11-20T04:04:16;98060.56;;;7.65;77.11
13312;BME280;34033;48.672;9.376;2022-11-20T04:06:41;98063.25;;;7.58;78.01
13312;BME280;34033;48.672;9.376;2022-11-20T04:09:06;98070.31;;;7.48;77.70
13312;BME280;34033;48.672;9.376;2022-11-20T04:11:34;98063.47;;;7.42;77.99
13312;BME280;34033;48.672;9.376;2022-11-20T04:14:04;98066.59;;;7.37;78.82
13312;BME280;34033;48.672;9.376;2022-11-20T04:16:32;98060.16;;;7.33;79.34
13312;BME280;34033;48.672;9.376;2022-11-20T04:19:00;98059.34;;;7.29;79.07
13312;BME280;34033;48.672;9.376;2022-11-20T04:21:26;98054.47;;;7.23;78.70
13312;BME280;34033;48.672;9.376;2022-11-20T04:23:52;98054.00;;;7.17;79.40
13312;BME280;34033;48.672;9.376;2022-11-20T04:26:18;98054.34;;;7.12;79.03
13312;BME280;34033;48.672;9.376;2022-11-20T04:28:44;98050.81;;;7.15;79.91
13312;BME280;34033;48.672;9.376;2022-11-20T04:31:13;98057.53;;;7.10;79.59
13312;BME280;34033;48.672;9.376;2022-11-20T04:33:39;98053.50;;;7.08;79.70
13312;BME280;34033;48.672;9.376;2022-11-20T04:36:07;98046.66;;;7.02;80.04
13312;BME280;34033;48.672;9.376;2022-11-20T04:38:33;98050.72;;;7.08;80.25
13312;BME280;34033;48.672;9.376;2022-11-20T04:41:00;98044.81;;;7.13;80.38
13312;BME280;34033;48.672;9.376;2022-11-20T04:43:26;98042.47;;;7.15;79.66
13312;BME280;34033;48.672;9.376;2022-11-20T04:45:53;98051.22;;;7.17;79.52
13312;BME280;34033;48.672;9.376;2022-11-20T04:48:18;98045.66;;;7.17;79.85
13312;BME280;34033;48.672;9.376;2022-11-20T04:50:44;98045.66;;;7.17;79.25
13312;BME280;34033;48.672;9.376;2022-11-20T04:53:09;98043.28;;;7.16;79.10
13312;BME280;34033;48.672;9.376;2022-11-20T04:55:35;98042.41;;;7.11;78.75
13312;BME280;34033;48.672;9.376;2022-11-20T04:58:00;98044.78;;;7.09;78.87
13312;BME280;34033;48.672;9.376;2022-11-20T05:00:25;98033.59;;;7.06;79.62
13312;BME280;34033;48.672;9.376;2022-11-20T05:02:51;98038.75;;;7.04;78.92
13312;BME280;34033;48.672;9.376;2022-11-20T05:05:16;98033.88;;;6.94;79.34
13312;BME280;34033;48.672;9.376;2022-11-20T05:07:41;98029.75;;;6.84;78.56
13312;BME280;34033;48.672;9.376;2022-11-20T05:10:07;98029.59;;;6.74;78.42
13312;BME280;34033;48.672;9.376;2022-11-20T05:12:32;98028.91;;;6.80;79.74
13312;BME280;34033;48.672;9.376;2022-11-20T05:14:57;98035.22;;;6.77;79.40
13312;BME280;34033;48.672;9.376;2022-11-20T05:17:23;98034.81;;;6.79;79.94
13312;BME280;34033;48.672;9.376;2022-11-20T05:19:48;98042.06;;;6.83;79.85
13312;BME280;34033;48.672;9.376;2022-11-20T05:22:13;98041.66;;;6.85;79.58
13312;BME280;34033;48.672;9.376;2022-11-20T05:24:39;98041.63;;;6.81;79.00
13312;BME280;34033;48.672;9.376;2022-11-20T05:27:04;98044.41;;;6.81;79.12
13312;BME280;34033;48.672;9.376;2022-11-20T05:29:29;98034.41;;;6.77;79.04
13312;BME280;34033;48.672;9.376;2022-11-20T05:31:55;98036.50;;;6.83;79.52
13312;BME280;34033;48.672;9.376;2022-11-20T05:34:20;98049.31;;;6.91;79.60
13312;BME280;34033;48.672;9.376;2022-11-20T05:36:45;98040.53;;;6.89;79.06
13312;BME280;34033;48.672;9.376;2022-11-20T05:39:10;98040.25;;;6.98;79.32
13312;BME280;34033;48.672;9.376;2022-11-20T05:41:36;98042.00;;;7.09;78.90
13312;BME280;34033;48.672;9.376;2022-11-20T05:44:01;98042.13;;;7.17;78.83
13312;BME280;34033;48.672;9.376;2022-11-20T05:46:27;98036.97;;;7.19;77.93
13312;BME280;34033;48.672;9.376;2022-11-20T05:48:52;98031.38;;;7.15;76.95
13312;BME280;34033;48.672;9.376;2022-11-20T05:51:18;98039.69;;;7.15;76.79
13312;BME280;34033;48.672;9.376;2022-11-20T05:53:44;98025.81;;;7.15;77.21
13312;BME280;34033;48.672;9.376;2022-11-20T05:56:20;98035.06;;;7.26;76.61
13312;BME280;34033;48.672;9.376;2022-11-20T05:58:46;98032.34;;;7.30;76.65
13312;BME280;34033;48.672;9.376;2022-11-20T06:01:13;98038.69;;;7.30;76.60
13312;BME280;34033;48.672;9.376;2022-11-20T06:03:40;98027.00;;;7.18;75.22
13312;BME280;34033;48.672;9.376;2022-11-20T06:06:06;98041.69;;;7.15;75.80
13312;BME280;34033;48.672;9.376;2022-11-20T06:08:32;98037.72;;;7.16;76.68
13312;BME280;34033;48.672;9.376;2022-11-20T06:10:57;98040.88;;;7.14;76.05
13312;BME280;34033;48.672;9.376;2022-11-20T06:13:23;98032.53;;;7.14;76.26
13312;BME280;34033;48.672;9.376;2022-11-20T06:15:52;98036.94;;;7.15;76.29
13312;BME280;34033;48.672;9.376;2022-11-20T06:18:18;98034.88;;;7.12;76.36
13312;BME280;34033;48.672;9.376;2022-11-20T06:20:44;98036.50;;;7.13;76.09
13312;BME280;34033;48.672;9.376;2022-11-20T06:23:09;98034.53;;;7.17;76.34
13312;BME280;34033;48.672;9.376;2022-11-20T06:25:41;98036.16;;;7.18;76.14
13312;BME280;34033;48.672;9.376;2022-11-20T06:28:07;98034.19;;;7.19;75.69
13312;BME280;34033;48.672;9.376;2022-11-20T06:30:34;98039.34;;;7.17;76.14
13312;BME280;34033;48.672;9.376;2022-11-20T06:32:59;98043.28;;;7.16;75.44
13312;BME280;34033;48.672;9.376;2022-11-20T06:35:25;98041.66;;;7.11;75.30
13312;BME280;34033;48.672;9.376;2022-11-20T06:37:50;98038.47;;;7.12;75.77
13312;BME280;34033;48.672;9.376;2022-11-20T06:40:15;98046.53;;;7.21;75.88
13312;BME280;34033;48.672;9.376;2022-11-20T06:42:41;98048.28;;;7.33;75.91
13312;BME280;34033;48.672;9.376;2022-11-20T06:45:07;98052.59;;;7.30;74.30
13312;BME280;34033;48.672;9.376;2022-11-20T06:47:32;98055.75;;;7.29;74.84
13312;BME280;34033;48.672;9.376;2022-11-20T06:49:58;98053.88;;;7.36;74.87
13312;BME280;34033;48.672;9.376;2022-11-20T06:52:23;98049.91;;;7.37;73.69
13312;BME280;34033;48.672;9.376;2022-11-20T06:54:49;98048.56;;;7.28;73.03
13312;BME280;34033;48.672;9.376;2022-11-20T06:57:14;98052.97;;;7.29;74.34
13312;BME280;34033;48.672;9.376;2022-11-20T06:59:39;98048.22;;;7.29;74.18
13312;BME280;34033;48.672;9.376;2022-11-20T07:02:05;98053.03;;;7.32;74.82
13312;BME280;34033;48.672;9.376;2022-11-20T07:04:30;98051.88;;;7.37;73.49
13312;BME280;34033;48.672;9.376;2022-11-20T07:06:55;98050.59;;;7.27;73.40
13312;BME280;34033;48.672;9.376;2022-11-20T07:09:20;98052.16;;;7.28;73.66
13312;BME280;34033;48.672;9.376;2022-11-20T07:11:46;98051.28;;;7.21;73.62
13312;BME280;34033;48.672;9.376;2022-11-20T07:14:11;98052.91;;;7.22;74.25
13312;BME280;34033;48.672;9.376;2022-11-20T07:16:36;98052.59;;;7.30;73.86
13312;BME280;34033;48.672;9.376;2022-11-20T07:19:02;98054.94;;;7.28;73.68
13312;BME280;34033;48.672;9.376;2022-11-20T07:21:27;98055.47;;;7.37;73.79
13312;BME280;34033;48.672;9.376;2022-11-20T07:23:52;98061.38;;;7.32;72.27
13312;BME280;34033;48.672;9.376;2022-11-20T07:26:18;98059.44;;;7.36;72.84
13312;BME280;34033;48.672;9.376;2022-11-20T07:28:45;98060.16;;;7.33;72.73
13312;BME280;34033;48.672;9.376;2022-11-20T07:31:10;98068.09;;;7.31;72.87
13312;BME280;34033;48.672;9.376;2022-11-20T07:33:37;98065.66;;;7.26;72.81
13312;BME280;34033;48.672;9.376;2022-11-20T07:36:02;98060.84;;;7.23;73.62
13312;BME280;34033;48.672;9.376;2022-11-20T07:38:28;98061.28;;;7.25;73.97
13312;BME280;34033;48.672;9.376;2022-11-20T07:40:54;98060.94;;;7.30;73.58
13312;BME280;34033;48.672;9.376;2022-11-20T07:43:20;98055.84;;;7.36;73.30
13312;BME280;34033;48.672;9.376;2022-11-20T07:45:46;98061.88;;;7.41;72.67
13312;BME280;34033;48.672;9.376;2022-11-20T07:48:11;98065.91;;;8.21;92.44
13312;BME280;34033;48.672;9.376;2022-11-20T07:50:36;98065.09;;;9.27;100.00
13312;BME280;34033;48.672;9.376;2022-11-20T07:53:03;98054.84;;;9.52;79.17
13312;BME280;34033;48.672;9.376;2022-11-20T07:55:29;98055.63;;;9.42;69.81
13312;BME280;34033;48.672;9.376;2022-11-20T07:57:55;98056.03;;;9.54;70.45
13312;BME280;34033;48.672;9.376;2022-11-20T08:00:21;98057.25;;;9.60;68.50
13312;BME280;34033;48.672;9.376;2022-11-20T08:02:47;98055.66;;;9.56;67.88
13312;BME280;34033;48.672;9.376;2022-11-20T08:05:12;98056.94;;;9.83;70.14
13312;BME280;34033;48.672;9.376;2022-11-20T08:07:38;98058.91;;;9.69;66.81
13312;BME280;34033;48.672;9.376;2022-11-20T08:10:05;98055.63;;;9.49;65.83
13312;BME280;34033;48.672;9.376;2022-11-20T08:12:30;98079.84;;;9.27;66.02
13312;BME280;34033;48.672;9.376;2022-11-20T08:15:14;98073.03;;;9.21;66.97
13312;BME280;34033;48.672;9.376;2022-11-20T08:17:39;98083.31;;;9.10;69.22
13312;BME280;34033;48.672;9.376;2022-11-20T08:20:05;98082.88;;;9.01;67.65
13312;BME280;34033;48.672;9.376;2022-11-20T08:22:30;98083.22;;;8.92;69.28
13312;BME280;34033;48.672;9.376;2022-11-20T08:24:56;98077.16;;;8.76;68.63
13312;BME280;34033;48.672;9.376;2022-11-20T08:27:22;98089.09;;;8.80;69.93
13312;BME280;34033;48.672;9.376;2022-11-20T08:29:47;98084.81;;;8.93;70.84
13312;BME280;34033;48.672;9.376;2022-11-20T08:32:13;98085.59;;;8.90;69.08
13312;BME280;34033;48.672;9.376;2022-11-20T08:34:38;98089.53;;;8.86;69.42
13312;BME280;34033;48.672;9.376;2022-11-20T08:37:03;98095.06;;;8.78;69.23
13312;BME280;34033;48.672;9.376;2022-11-20T08:39:29;98093.44;;;8.74;71.75
13312;BME280;34033;48.672;9.376;2022-11-20T08:41:54;98095.63;;;8.98;73.17
13312;BME280;34033;48.672;9.376;2022-11-20T08:44:19;98092.47;;;9.03;69.84
13312;BME280;34033;48.672;9.376;2022-11-20T08:46:45;98096.00;;;8.97;68.95
13312;BME280;34033;48.672;9.376;2022-11-20T08:49:12;98092.81;;;8.98;75.99
13312;BME280;34033;48.672;9.376;2022-11-20T08:51:38;98092.56;;;10.18;92.58
13312;BME280;34033;48.672;9.376;2022-11-20T08:54:04;98097.00;;;10.72;86.81
13312;BME280;34033;48.672;9.376;2022-11-20T08:56:30;98099.00;;;10.47;67.61
13312;BME280;34033;48.672;9.376;2022-11-20T08:58:55;98092.97;;;10.24;67.44
13312;BME280;34033;48.672;9.376;2022-11-20T09:01:22;98092.00;;;9.77;65.50
13312;BME280;34033;48.672;9.376;2022-11-20T09:03:48;98086.34;;;9.56;69.31
13312;BME280;34033;48.672;9.376;2022-11-20T09:06:14;98091.50;;;9.54;70.59
13312;BME280;34033;48.672;9.376;2022-11-20T09:08:39;98093.41;;;9.32;67.92
13312;BME280;34033;48.672;9.376;2022-11-20T09:11:05;98105.63;;;9.06;69.35
13312;BME280;34033;48.672;9.376;2022-11-20T09:13:32;98102.75;;;8.99;69.33
13312;BME280;34033;48.672;9.376;2022-11-20T09:15:59;98092.72;;;8.88;70.49
13312;BME280;34033;48.672;9.376;2022-11-20T09:18:26;98096.38;;;8.95;72.49
13312;BME280;34033;48.672;9.376;2022-11-20T09:20:56;98100.41;;;9.05;70.92
13312;BME280;34033;48.672;9.376;2022-11-20T09:23:22;98093.41;;;9.29;74.15
13312;BME280;34033;48.672;9.376;2022-11-20T09:25:47;98106.47;;;9.17;72.16
13312;BME280;34033;48.672;9.376;2022-11-20T09:28:12;98100.97;;;9.28;71.68
13312;BME280;34033;48.672;9.376;2022-11-20T09:30:38;98099.78;;;9.33;72.06
13312;BME280;34033;48.672;9.376;2022-11-20T09:33:04;98107.28;;;9.18;71.27
13312;BME280;34033;48.672;9.376;2022-11-20T09:35:30;98113.66;;;9.22;73.02
13312;BME280;34033;48.672;9.376;2022-11-20T09:37:56;98102.88;;;9.13;73.72
13312;BME280;34033;48.672;9.376;2022-11-20T09:40:28;98106.41;;;9.03;71.52
13312;BME280;34033;48.672;9.376;2022-11-20T09:46:19;98114.75;;;9.03;73.74
13312;BME280;34033;48.672;9.376;2022-11-20T09:51:35;98117.22;;;10.02;70.56
13312;BME280;34033;48.672;9.376;2022-11-20T09:54:23;98118.00;;;9.95;74.20
13312;BME280;34033;48.672;9.376;2022-11-20T09:56:56;98113.56;;;9.80;72.91
13312;BME280;34033;48.672;9.376;2022-11-20T09:59:32;98115.53;;;9.76;74.17
13312;BME280;34033;48.672;9.376;2022-11-20T10:01:59;98115.38;;;9.41;72.58
13312;BME280;34033;48.672;9.376;2022-11-20T10:07:41;98113.03;;;9.50;76.44
13312;BME280;34033;48.672;9.376;2022-11-20T10:09:35;98106.31;;;9.58;76.57
13312;BME280;34033;48.672;9.376;2022-11-20T10:12:20;98107.19;;;9.83;74.83
13312;BME280;34033;48.672;9.376;2022-11-20T10:15:12;98113.56;;;9.87;74.32
13312;BME280;34033;48.672;9.376;2022-11-20T10:26:22;98107.50;;;9.57;73.77
13312;BME280;34033;48.672;9.376;2022-11-20T10:28:56;98114.94;;;9.35;74.34
13312;BME280;34033;48.672;9.376;2022-11-20T10:31:42;98112.84;;;9.14;73.10
13312;BME280;34033;48.672;9.376;2022-11-20T10:34:22;98114.84;;;9.17;77.34
13312;BME280;34033;48.672;9.376;2022-11-20T10:36:55;98119.91;;;8.98;74.25
13312;BME280;34033;48.672;9.376;2022-11-20T10:41:52;98122.19;;;8.85;74.86
13312;BME280;34033;48.672;9.376;2022-11-20T10:44:25;98119.31;;;8.74;75.58
13312;BME280;34033;48.672;9.376;2022-11-20T10:47:17;98124.38;;;8.58;77.39
13312;BME280;34033;48.672;9.376;2022-11-20T10:49:46;98124.00;;;9.18;92.77
13312;BME280;34033;48.672;9.376;2022-11-20T10:55:06;98120.78;;;9.12;79.13
13312;BME280;34033;48.672;9.376;2022-11-20T11:00:15;98108.94;;;9.30;77.97
13312;BME280;34033;48.672;9.376;2022-11-20T11:07:50;98113.34;;;9.31;79.68
13312;BME280;34033;48.672;9.376;2022-11-20T11:10:22;98109.31;;;9.25;77.75
13312;BME280;34033;48.672;9.376;2022-11-20T11:12:49;98104.13;;;9.27;79.67
13312;BME280;34033;48.672;9.376;2022-11-20T11:15:27;98094.63;;;9.38;79.60
13312;BME280;34033;48.672;9.376;2022-11-20T11:17:53;98095.91;;;9.51;79.45
13312;BME280;34033;48.672;9.376;2022-11-20T11:20:23;98098.69;;;9.55;80.20
13312;BME280;34033;48.672;9.376;2022-11-20T11:22:51;98086.78;;;9.58;77.17
13312;BME280;34033;48.672;9.376;2022-11-20T11:27:48;98094.72;;;9.59;78.45
13312;BME280;34033;48.672;9.376;2022-11-20T11:30:17;98089.94;;;9.53;76.57
13312;BME280;34033;48.672;9.376;2022-11-20T11:32:43;98080.44;;;9.72;82.12
13312;BME280;34033;48.672;9.376;2022-11-20T11:35:26;98081.25;;;9.79;76.72
13312;BME280;34033;48.672;9.376;2022-11-20T11:37:54;98074.88;;;9.82;75.42
13312;BME280;34033;48.672;9.376;2022-11-20T11:40:27;98067.72;;;9.88;75.73
13312;BME280;34033;48.672;9.376;2022-11-20T11:43:02;98073.34;;;10.06;76.00
13312;BME280;34033;48.672;9.376;2022-11-20T11:45:29;98060.16;;;9.89;73.71
13312;BME280;34033;48.672;9.376;2022-11-20T11:47:57;98053.38;;;9.90;73.20
13312;BME280;34033;48.672;9.376;2022-11-20T11:50:25;98059.78;;;10.04;73.84
13312;BME280;34033;48.672;9.376;2022-11-20T11:53:13;98045.44;;;10.02;71.95
13312;BME280;34033;48.672;9.376;2022-11-20T11:55:46;98053.41;;;9.97;73.16
13312;BME280;34033;48.672;9.376;2022-11-20T12:04:21;98047.06;;;10.21;74.47
13312;BME280;34033;48.672;9.376;2022-11-20T12:06:58;98038.28;;;10.23;73.95
13312;BME280;34033;48.672;9.376;2022-11-20T12:09:34;98034.31;;;10.24;73.29
13312;BME280;34033;48.672;9.376;2022-11-20T12:12:10;98040.63;;;10.07;71.59
13312;BME280;34033;48.672;9.376;2022-11-20T12:14:40;98031.84;;;10.01;72.94
13312;BME280;34033;48.672;9.376;2022-11-20T12:17:10;98040.69;;;10.17;73.78
13312;BME280;34033;48.672;9.376;2022-11-20T12:19:36;98025.13;;;10.27;73.58
13312;BME280;34033;48.672;9.376;2022-11-20T12:25:10;98025.50;;;10.75;71.55
13312;BME280;34033;48.672;9.376;2022-11-20T12:30:15;98009.50;;;10.75;70.56
13312;BME280;34033;48.672;9.376;2022-11-20T12:47:27;98009.94;;;10.21;67.42
13312;BME280;34033;48.672;9.376;2022-11-20T13:00:15;98013.50;;;10.11;64.72
13312;BME280;34033;48.672;9.376;2022-11-20T13:03:21;98019.47;;;9.88;64.54
13312;BME280;34033;48.672;9.376;2022-11-20T13:08:36;98017.47;;;9.95;66.25
13312;BME280;34033;48.672;9.376;2022-11-20T13:16:17;98013.97;;;10.20;65.39
13312;BME280;34033;48.672;9.376;2022-11-20T13:18:45;98018.31;;;10.14;62.87
13312;BME280;34033;48.672;9.376;2022-11-20T13:23:40;98012.34;;;10.22;64.73
13312;BME280;34033;48.672;9.376;2022-11-20T13:26:23;98007.94;;;10.21;64.20
13312;BME280;34033;48.672;9.376;2022-11-20T13:31:33;98009.56;;;10.40;62.83
13312;BME280;34033;48.672;9.376;2022-11-20T13:34:02;98009.97;;;10.28;62.66
13312;BME280;34033;48.672;9.376;2022-11-20T13:36:29;98005.97;;;10.29;61.90
13312;BME280;34033;48.672;9.376;2022-11-20T13:38:56;98017.16;;;10.29;62.00
13312;BME280;34033;48.672;9.376;2022-11-20T13:41:35;98008.72;;;10.04;61.72
13312;BME280;34033;48.672;9.376;2022-11-20T13:46:45;97999.13;;;9.80;62.83
13312;BME280;34033;48.672;9.376;2022-11-20T13:49:32;97988.75;;;9.84;63.60
13312;BME280;34033;48.672;9.376;2022-11-20T13:55:05;97982.38;;;9.91;62.25
13312;BME280;34033;48.672;9.376;2022-11-20T13:57:46;97982.38;;;10.16;66.12
13312;BME280;34033;48.672;9.376;2022-11-20T14:00:20;97982.00;;;10.31;65.96
13312;BME280;34033;48.672;9.376;2022-11-20T14:02:57;97984.03;;;10.31;63.20
13312;BME280;34033;48.672;9.376;2022-11-20T14:05:24;97977.63;;;10.27;64.11
13312;BME280;34033;48.672;9.376;2022-11-20T14:07:52;97972.06;;;10.30;62.31
13312;BME280;34033;48.672;9.376;2022-11-20T14:10:27;97972.44;;;10.08;61.91
13312;BME280;34033;48.672;9.376;2022-11-20T14:12:53;97974.41;;;9.96;61.71
13312;BME280;34033;48.672;9.376;2022-11-20T14:15:27;97971.25;;;10.23;63.86
13312;BME280;34033;48.672;9.376;2022-11-20T14:17:53;97971.63;;;10.42;62.00
13312;BME280;34033;48.672;9.376;2022-11-20T14:20:18;97976.78;;;10.65;61.88
13312;BME280;34033;48.672;9.376;2022-11-20T14:22:49;97970.00;;;10.59;59.47
13312;BME280;34033;48.672;9.376;2022-11-20T14:27:42;97980.03;;;10.35;60.09
13312;BME280;34033;48.672;9.376;2022-11-20T14:32:39;97982.44;;;10.30;59.48
13312;BME280;34033;48.672;9.376;2022-11-20T14:35:14;97975.25;;;10.29;60.32
13312;BME280;34033;48.672;9.376;2022-11-20T14:37:44;97980.03;;;10.18;60.94
13312;BME280;34033;48.672;9.376;2022-11-20T14:40:32;97968.06;;;10.24;62.87
13312;BME280;34033;48.672;9.376;2022-11-20T14:43:00;97979.97;;;9.93;60.01
13312;BME280;34033;48.672;9.376;2022-11-20T14:45:26;97967.97;;;9.68;60.88
13312;BME280;34033;48.672;9.376;2022-11-20T14:47:53;97964.00;;;9.72;65.29
13312;BME280;34033;48.672;9.376;2022-11-20T14:50:25;97956.81;;;9.57;61.91
13312;BME280;34033;48.672;9.376;2022-11-20T14:52:56;97972.75;;;9.67;69.34
13312;BME280;34033;48.672;9.376;2022-11-20T14:55:35;97956.34;;;9.34;63.34